createdAt,value
2022-08-20T00:04:02.157Z,32.63
2022-08-20T00:09:04.559Z,33.15
2022-08-20T00:14:07.274Z,33.92
2022-08-20T00:19:09.593Z,30.90
2022-08-20T00:24:11.259Z,33.78
2022-08-20T00:29:13.188Z,33.08
2022-08-20T00:34:18.301Z,34.63
2022-08-20T00:39:20.004Z,35.15
2022-08-20T00:44:22.812Z,34.92
2022-08-20T00:49:28.532Z,34.13
2022-08-20T00:54:35.371Z,34.13
2022-08-20T00:59:41.666Z,37.05
2022-08-20T01:04:49.705Z,38.30
2022-08-20T01:09:57.846Z,40.30
2022-08-20T01:15:03.556Z,39.70
2022-08-20T01:20:10.576Z,40.15
2022-08-20T01:25:23.904Z,42.22
2022-08-20T01:30:28.813Z,40.92
2022-08-20T01:35:36.921Z,41.88
2022-08-20T01:40:58.748Z,41.33
2022-08-20T01:46:01.384Z,41.47
2022-08-20T01:51:19.473Z,42.35
2022-08-20T01:56:25.966Z,40.20
2022-08-20T02:01:46.790Z,42.63
2022-08-20T02:06:58.236Z,42.25
2022-08-20T02:12:01.035Z,42.55
2022-08-20T02:17:02.885Z,42.30
2022-08-20T02:22:32.332Z,41.60
2022-08-20T02:27:34.013Z,40.28
2022-08-20T02:32:37.929Z,39.72
2022-08-20T02:37:42.417Z,43.40
2022-08-20T02:42:44.612Z,44.28
2022-08-20T02:47:46.907Z,44.53
2022-08-20T02:52:51.864Z,44.90
2022-08-20T02:57:57.515Z,43.53
2022-08-20T03:03:01.379Z,45.60
2022-08-20T03:08:04.057Z,44.97
2022-08-20T03:13:06.754Z,48.00
2022-08-20T03:18:08.578Z,44.45
2022-08-20T03:23:10.695Z,40.53
2022-08-20T03:28:13.484Z,40.65
2022-08-20T03:33:16.503Z,38.83
2022-08-20T03:38:25.004Z,36.70
2022-08-20T03:43:35.305Z,30.67
2022-08-20T03:48:37.924Z,30.85
2022-08-20T03:53:39.570Z,32.55
2022-08-20T03:58:41.216Z,29.48
2022-08-20T04:03:42.896Z,28.92
2022-08-20T04:08:44.553Z,25.55
2022-08-20T04:13:46.196Z,23.33
2022-08-20T04:19:01.877Z,19.05
2022-08-20T04:24:05.770Z,17.38
2022-08-20T04:29:08.228Z,16.20
2022-08-20T04:34:09.952Z,13.50
2022-08-20T04:39:11.593Z,11.65
2022-08-20T04:44:13.302Z,9.50
2022-08-20T04:49:15.202Z,8.38
2022-08-20T04:54:16.870Z,6.32
2022-08-20T04:59:18.519Z,7.10
2022-08-20T05:04:20.162Z,5.72
2022-08-20T05:09:21.812Z,7.50
2022-08-20T05:14:23.471Z,8.82
2022-08-20T05:19:25.547Z,11.02
2022-08-20T05:24:27.561Z,11.18
2022-08-20T05:29:31.690Z,12.10
2022-08-20T05:34:33.408Z,12.93
2022-08-20T05:39:37.490Z,13.50
2022-08-20T05:44:39.330Z,12.18
2022-08-20T05:49:41.014Z,13.20
2022-08-20T05:54:42.668Z,14.02
2022-08-20T05:59:44.331Z,14.40
2022-08-20T06:04:46.085Z,16.83
2022-08-20T06:09:57.861Z,15.70
2022-08-20T06:14:59.575Z,16.98
2022-08-20T06:20:06.558Z,19.73
2022-08-20T06:25:10.325Z,23.55
2022-08-20T06:30:14.989Z,28.48
2022-08-20T06:35:20.007Z,31.30
2022-08-20T06:40:25.761Z,32.83
2022-08-20T06:45:31.973Z,33.72
2022-08-20T06:50:47.036Z,32.17
2022-08-20T06:55:54.351Z,32.78
2022-08-20T07:00:56.089Z,32.95
2022-08-20T07:05:58.039Z,33.25
2022-08-20T07:10:59.845Z,32.47
2022-08-20T07:16:01.527Z,35.55
2022-08-20T07:21:03.956Z,37.78
2022-08-20T07:26:08.127Z,32.78
2022-08-20T07:31:28.537Z,33.58
2022-08-20T07:36:33.322Z,28.80
2022-08-20T07:41:35.096Z,29.30
2022-08-20T07:46:36.754Z,28.60
2022-08-20T07:51:38.476Z,29.02
2022-08-20T07:56:40.120Z,31.35
2022-08-20T08:01:42.105Z,26.48
2022-08-20T08:06:45.330Z,27.80
2022-08-20T08:11:50.295Z,29.13
2022-08-20T08:16:54.896Z,31.00
2022-08-20T08:21:58.744Z,30.48
2022-08-20T08:27:00.713Z,33.50
2022-08-20T08:32:04.621Z,29.83
2022-08-20T08:37:06.535Z,25.33
2022-08-20T08:42:27.162Z,24.83
2022-08-20T08:47:35.708Z,25.70
2022-08-20T08:52:41.298Z,25.85
2022-08-20T08:57:42.965Z,28.20
2022-08-20T09:03:07.560Z,29.63
2022-08-20T09:08:16.846Z,29.02
2022-08-20T09:13:19.320Z,30.50
2022-08-20T09:18:20.982Z,33.55
2022-08-20T09:23:22.678Z,35.92
2022-08-20T09:28:24.597Z,36.78
2022-08-20T09:33:34.088Z,39.10
2022-08-20T09:38:35.746Z,35.33
2022-08-20T09:43:37.392Z,39.45
2022-08-20T09:48:39.198Z,38.75
2022-08-20T09:53:49.019Z,37.90
2022-08-20T09:58:53.433Z,35.25
2022-08-20T10:03:55.068Z,35.75
2022-08-20T10:08:56.720Z,36.03
2022-08-20T10:13:58.848Z,34.42
2022-08-20T10:19:00.798Z,33.20
2022-08-20T10:24:02.641Z,36.30
2022-08-20T10:29:04.297Z,37.88
2022-08-20T10:34:06.014Z,38.55
2022-08-20T10:39:07.688Z,40.10
2022-08-20T10:44:09.392Z,42.67
2022-08-20T10:49:11.522Z,41.42
2022-08-20T10:54:15.525Z,44.80
2022-08-20T10:59:17.157Z,45.05
2022-08-20T11:04:18.865Z,41.75
2022-08-20T11:09:20.571Z,38.70
2022-08-20T11:14:22.264Z,43.03
2022-08-20T11:19:23.921Z,39.85
2022-08-20T11:24:25.617Z,43.45
2022-08-20T11:29:30.975Z,42.47
2022-08-20T11:34:35.166Z,43.85
2022-08-20T11:39:41.615Z,45.08
2022-08-20T11:44:43.869Z,42.05
2022-08-20T11:49:45.549Z,44.08
2022-08-20T11:54:47.176Z,42.97
2022-08-20T11:59:52.181Z,43.63
2022-08-20T12:04:54.037Z,38.70
2022-08-20T12:09:55.792Z,37.40
2022-08-20T12:14:57.441Z,37.35
2022-08-20T12:20:01.528Z,34.60
2022-08-20T12:25:04.925Z,35.90
2022-08-20T12:30:14.009Z,39.30
2022-08-20T12:35:17.715Z,36.22
2022-08-20T12:40:32.405Z,37.50
2022-08-20T12:45:35.874Z,35.45
2022-08-20T12:50:39.960Z,37.58
2022-08-20T12:55:41.639Z,38.50
2022-08-20T13:00:48.608Z,36.28
2022-08-20T13:05:52.413Z,34.80
2022-08-20T13:10:54.106Z,37.00
2022-08-20T13:15:55.763Z,34.38
2022-08-20T13:20:57.414Z,36.72
2022-08-20T13:25:59.102Z,33.70
2022-08-20T13:31:02.173Z,31.10
2022-08-20T13:36:04.228Z,31.55
2022-08-20T13:41:06.048Z,28.02
2022-08-20T13:46:07.778Z,29.10
2022-08-20T13:51:09.457Z,29.52
2022-08-20T13:56:11.120Z,29.48
2022-08-20T14:01:12.972Z,30.73
2022-08-20T14:06:14.689Z,29.95
2022-08-20T14:11:17.705Z,29.75
2022-08-20T14:16:25.355Z,28.48
2022-08-20T14:21:29.721Z,26.63
2022-08-20T14:26:31.412Z,28.05
2022-08-20T14:31:33.079Z,26.60
2022-08-20T14:36:34.708Z,25.30
2022-08-20T14:41:36.357Z,26.30
2022-08-20T14:46:38.020Z,26.80
2022-08-20T14:51:39.702Z,25.13
2022-08-20T14:56:41.359Z,24.50
2022-08-20T15:01:43.219Z,24.42
2022-08-20T15:06:46.117Z,23.17
2022-08-20T15:11:48.012Z,25.02
2022-08-20T15:16:49.703Z,24.15
2022-08-20T15:21:51.372Z,23.02
2022-08-20T15:26:53.050Z,26.95
2022-08-20T15:31:54.816Z,27.17
2022-08-20T15:36:59.197Z,25.52
2022-08-20T15:42:00.913Z,27.33
2022-08-20T15:47:15.258Z,28.17
2022-08-20T15:52:17.571Z,29.67
2022-08-20T15:57:32.237Z,30.85
2022-08-20T16:02:52.059Z,30.50
2022-08-20T16:08:17.101Z,34.45
2022-08-20T16:13:22.468Z,25.70
2022-08-20T16:18:30.597Z,29.30
2022-08-20T16:23:35.541Z,28.35
2022-08-20T16:29:04.935Z,32.90
2022-08-20T16:34:32.426Z,33.92
2022-08-20T16:39:51.237Z,37.25
2022-08-20T16:44:56.656Z,37.65
2022-08-20T16:50:03.773Z,34.65
2022-08-20T16:55:05.614Z,35.80
2022-08-20T17:00:18.982Z,39.67
2022-08-20T17:05:23.447Z,39.90
2022-08-20T17:10:29.254Z,42.05
2022-08-20T17:15:35.123Z,42.13
2022-08-20T17:20:45.112Z,44.35
2022-08-20T17:26:00.387Z,43.72
2022-08-20T17:31:02.211Z,46.67
2022-08-20T17:36:26.288Z,46.50
2022-08-20T17:41:36.119Z,47.78
2022-08-20T17:46:44.176Z,48.08
2022-08-20T17:51:52.743Z,48.67
2022-08-20T17:57:00.461Z,44.88
2022-08-20T18:02:03.752Z,45.70
2022-08-20T18:07:18.241Z,44.05
2022-08-20T18:12:34.334Z,42.88
2022-08-20T18:17:57.734Z,44.53
2022-08-20T18:23:10.432Z,43.63
2022-08-20T18:28:26.613Z,43.30
2022-08-20T18:33:36.485Z,42.22
2022-08-20T18:38:43.873Z,42.72
2022-08-20T18:43:45.706Z,44.42
2022-08-20T18:49:03.433Z,41.05
2022-08-20T18:54:05.208Z,41.08
2022-08-20T18:59:13.741Z,42.00
2022-08-20T19:04:26.086Z,40.33
2022-08-20T19:09:36.491Z,41.10
2022-08-20T19:14:54.150Z,39.55
2022-08-20T19:20:10.540Z,37.42
2022-08-20T19:25:33.149Z,36.65
2022-08-20T19:30:38.816Z,37.60
2022-08-20T19:35:40.620Z,38.13
2022-08-20T19:40:46.071Z,39.00
2022-08-20T19:45:51.752Z,36.67
2022-08-20T19:51:13.881Z,34.38
2022-08-20T19:56:23.653Z,32.75
2022-08-20T20:01:25.589Z,32.72
2022-08-20T20:06:28.646Z,36.45
2022-08-20T20:11:36.842Z,37.20
2022-08-20T20:16:41.067Z,36.30
2022-08-20T20:21:49.652Z,40.85
2022-08-20T20:26:51.701Z,40.33
2022-08-20T20:31:59.316Z,43.42
2022-08-20T20:37:13.285Z,41.53
2022-08-20T20:42:26.349Z,39.25
2022-08-20T20:47:32.497Z,41.35
2022-08-20T20:52:49.342Z,42.15
2022-08-20T20:57:53.242Z,41.03
2022-08-20T21:02:55.519Z,40.70
2022-08-20T21:08:03.086Z,41.33
2022-08-20T21:13:08.107Z,42.33
2022-08-20T21:18:09.887Z,41.60
2022-08-20T21:23:11.592Z,42.17
2022-08-20T21:28:13.331Z,43.53
2022-08-20T21:33:14.978Z,40.08
2022-08-20T21:38:16.624Z,40.92
2022-08-20T21:43:18.811Z,43.95
2022-08-20T21:48:20.636Z,42.50
2022-08-20T21:53:23.044Z,39.38
2022-08-20T21:58:24.722Z,41.33
2022-08-20T22:03:29.836Z,40.38
2022-08-20T22:08:33.058Z,38.58
2022-08-20T22:13:35.428Z,41.97
2022-08-20T22:18:37.761Z,42.42
2022-08-20T22:23:40.211Z,41.70
2022-08-20T22:28:43.779Z,37.75
2022-08-20T22:33:45.440Z,39.92
2022-08-20T22:38:47.837Z,38.50
2022-08-20T22:43:57.486Z,37.15
2022-08-20T22:48:59.668Z,37.90
2022-08-20T22:54:03.899Z,36.08
2022-08-20T22:59:06.602Z,35.90
2022-08-20T23:04:23.733Z,35.60
2022-08-20T23:09:25.886Z,41.30
2022-08-20T23:14:27.682Z,42.40
2022-08-20T23:19:29.387Z,41.00
2022-08-20T23:24:31.195Z,41.58
2022-08-20T23:29:33.380Z,44.08
2022-08-20T23:34:35.362Z,47.80
2022-08-20T23:39:37.430Z,47.55
2022-08-20T23:44:39.576Z,49.63
2022-08-20T23:49:41.244Z,52.55
2022-08-20T23:54:43.289Z,49.60
2022-08-20T23:59:44.980Z,52.33
